sensor_id;sensor_type;location;lat;lon;timestamp;P1;durP1;ratioP1;P2;durP2;ratioP2
17345;SDS011;8790;53.590;10.002;2024-02-21T00:00:45;28.43;;;15.10;;
17345;SDS011;8790;53.590;10.002;2024-02-21T00:03:16;31.93;;;15.37;;
17345;SDS011;8790;53.590;10.002;2024-02-21T00:05:48;29.13;;;15.37;;
17345;SDS011;8790;53.590;10.002;2024-02-21T00:08:19;27.60;;;14.80;;
17345;SDS011;8790;53.590;10.002;2024-02-21T00:10:51;30.17;;;15.57;;
17345;SDS011;8790;53.590;10.002;2024-02-21T00:13:22;26.00;;;16.13;;
17345;SDS011;8790;53.590;10.002;2024-02-21T00:15:55;25.77;;;14.80;;
17345;SDS011;8790;53.590;10.002;2024-02-21T00:18:27;30.20;;;16.17;;
17345;SDS011;8790;53.590;10.002;2024-02-21T00:20:58;32.47;;;15.87;;
17345;SDS011;8790;53.590;10.002;2024-02-21T00:23:31;28.57;;;15.70;;
17345;SDS011;8790;53.590;10.002;2024-02-21T00:26:03;30.10;;;15.83;;
17345;SDS011;8790;53.590;10.002;2024-02-21T00:28:35;27.83;;;14.80;;
17345;SDS011;8790;53.590;10.002;2024-02-21T00:31:08;27.43;;;14.47;;
17345;SDS011;8790;53.590;10.002;2024-02-21T00:33:40;30.77;;;16.10;;
17345;SDS011;8790;53.590;10.002;2024-02-21T00:36:11;30.13;;;16.17;;
17345;SDS011;8790;53.590;10.002;2024-02-21T00:38:42;33.87;;;15.50;;
17345;SDS011;8790;53.590;10.002;2024-02-21T00:41:14;29.70;;;15.97;;
17345;SDS011;8790;53.590;10.002;2024-02-21T00:43:46;29.93;;;16.23;;
17345;SDS011;8790;53.590;10.002;2024-02-21T00:46:19;27.47;;;15.77;;
17345;SDS011;8790;53.590;10.002;2024-02-21T00:48:51;28.70;;;15.70;;
17345;SDS011;8790;53.590;10.002;2024-02-21T00:51:22;26.97;;;15.40;;
17345;SDS011;8790;53.590;10.002;2024-02-21T00:53:54;31.17;;;15.57;;
17345;SDS011;8790;53.590;10.002;2024-02-21T00:56:25;31.93;;;16.53;;
17345;SDS011;8790;53.590;10.002;2024-02-21T00:58:57;30.30;;;15.37;;
17345;SDS011;8790;53.590;10.002;2024-02-21T01:01:29;31.80;;;17.10;;
17345;SDS011;8790;53.590;10.002;2024-02-21T01:04:01;33.13;;;17.40;;
17345;SDS011;8790;53.590;10.002;2024-02-21T01:06:34;38.40;;;21.27;;
17345;SDS011;8790;53.590;10.002;2024-02-21T01:09:20;31.63;;;18.27;;
17345;SDS011;8790;53.590;10.002;2024-02-21T01:11:54;32.90;;;16.63;;
17345;SDS011;8790;53.590;10.002;2024-02-21T01:14:30;29.00;;;16.60;;
17345;SDS011;8790;53.590;10.002;2024-02-21T01:17:09;33.10;;;18.07;;
17345;SDS011;8790;53.590;10.002;2024-02-21T01:19:40;36.17;;;16.87;;
17345;SDS011;8790;53.590;10.002;2024-02-21T01:22:12;30.00;;;16.63;;
17345;SDS011;8790;53.590;10.002;2024-02-21T01:24:43;29.30;;;16.57;;
17345;SDS011;8790;53.590;10.002;2024-02-21T01:27:14;30.70;;;16.27;;
17345;SDS011;8790;53.590;10.002;2024-02-21T01:29:46;33.67;;;16.70;;
17345;SDS011;8790;53.590;10.002;2024-02-21T01:32:21;29.57;;;16.50;;
17345;SDS011;8790;53.590;10.002;2024-02-21T01:34:54;28.13;;;16.73;;
17345;SDS011;8790;53.590;10.002;2024-02-21T01:37:25;32.47;;;16.57;;
17345;SDS011;8790;53.590;10.002;2024-02-21T01:39:57;30.73;;;16.43;;
17345;SDS011;8790;53.590;10.002;2024-02-21T01:42:28;27.67;;;16.17;;
17345;SDS011;8790;53.590;10.002;2024-02-21T01:45:00;30.50;;;16.67;;
17345;SDS011;8790;53.590;10.002;2024-02-21T01:47:32;30.87;;;16.33;;
17345;SDS011;8790;53.590;10.002;2024-02-21T01:50:04;30.70;;;16.57;;
17345;SDS011;8790;53.590;10.002;2024-02-21T01:52:36;33.63;;;16.97;;
17345;SDS011;8790;53.590;10.002;2024-02-21T01:55:08;29.27;;;16.43;;
17345;SDS011;8790;53.590;10.002;2024-02-21T01:57:41;32.87;;;17.40;;
17345;SDS011;8790;53.590;10.002;2024-02-21T02:00:16;30.00;;;17.57;;
17345;SDS011;8790;53.590;10.002;2024-02-21T02:02:49;31.50;;;17.13;;
17345;SDS011;8790;53.590;10.002;2024-02-21T02:05:22;28.63;;;16.90;;
17345;SDS011;8790;53.590;10.002;2024-02-21T02:07:54;32.73;;;17.37;;
17345;SDS011;8790;53.590;10.002;2024-02-21T02:10:25;30.33;;;17.73;;
17345;SDS011;8790;53.590;10.002;2024-02-21T02:12:57;32.50;;;18.57;;
17345;SDS011;8790;53.590;10.002;2024-02-21T02:15:37;32.17;;;18.50;;
17345;SDS011;8790;53.590;10.002;2024-02-21T02:18:10;34.80;;;18.53;;
17345;SDS011;8790;53.590;10.002;2024-02-21T02:20:42;30.73;;;18.37;;
17345;SDS011;8790;53.590;10.002;2024-02-21T02:23:21;31.23;;;18.67;;
17345;SDS011;8790;53.590;10.002;2024-02-21T02:25:54;34.73;;;19.27;;
17345;SDS011;8790;53.590;10.002;2024-02-21T02:28:26;34.93;;;20.13;;
17345;SDS011;8790;53.590;10.002;2024-02-21T02:30:57;35.47;;;20.07;;
17345;SDS011;8790;53.590;10.002;2024-02-21T02:33:29;36.50;;;20.50;;
17345;SDS011;8790;53.590;10.002;2024-02-21T02:36:00;34.37;;;19.43;;
17345;SDS011;8790;53.590;10.002;2024-02-21T02:38:33;38.60;;;20.73;;
17345;SDS011;8790;53.590;10.002;2024-02-21T02:41:04;37.37;;;19.90;;
17345;SDS011;8790;53.590;10.002;2024-02-21T02:43:36;34.93;;;19.77;;
17345;SDS011;8790;53.590;10.002;2024-02-21T02:46:07;37.27;;;20.63;;
17345;SDS011;8790;53.590;10.002;2024-02-21T02:48:39;40.03;;;21.00;;
17345;SDS011;8790;53.590;10.002;2024-02-21T02:51:10;40.80;;;21.00;;
17345;SDS011;8790;53.590;10.002;2024-02-21T02:53:43;37.27;;;20.13;;
17345;SDS011;8790;53.590;10.002;2024-02-21T02:56:14;39.30;;;20.27;;
17345;SDS011;8790;53.590;10.002;2024-02-21T02:58:46;35.33;;;20.87;;
17345;SDS011;8790;53.590;10.002;2024-02-21T03:01:17;39.90;;;20.97;;
17345;SDS011;8790;53.590;10.002;2024-02-21T03:03:49;37.13;;;20.20;;
17345;SDS011;8790;53.590;10.002;2024-02-21T03:06:20;38.23;;;20.17;;
17345;SDS011;8790;53.590;10.002;2024-02-21T03:08:53;33.87;;;20.13;;
17345;SDS011;8790;53.590;10.002;2024-02-21T03:11:25;37.00;;;21.43;;
17345;SDS011;8790;53.590;10.002;2024-02-21T03:13:58;41.50;;;21.10;;
17345;SDS011;8790;53.590;10.002;2024-02-21T03:16:30;33.40;;;18.70;;
17345;SDS011;8790;53.590;10.002;2024-02-21T03:19:01;35.53;;;19.57;;
17345;SDS011;8790;53.590;10.002;2024-02-21T03:21:33;39.87;;;19.73;;
17345;SDS011;8790;53.590;10.002;2024-02-21T03:24:06;35.70;;;19.37;;
17345;SDS011;8790;53.590;10.002;2024-02-21T03:26:38;38.73;;;20.53;;
17345;SDS011;8790;53.590;10.002;2024-02-21T03:29:10;38.97;;;20.57;;
17345;SDS011;8790;53.590;10.002;2024-02-21T03:31:42;39.70;;;19.30;;
17345;SDS011;8790;53.590;10.002;2024-02-21T03:34:14;36.00;;;20.43;;
17345;SDS011;8790;53.590;10.002;2024-02-21T03:36:45;34.17;;;20.17;;
17345;SDS011;8790;53.590;10.002;2024-02-21T03:39:18;36.50;;;19.80;;
17345;SDS011;8790;53.590;10.002;2024-02-21T03:41:50;36.57;;;19.33;;
17345;SDS011;8790;53.590;10.002;2024-02-21T03:44:21;34.87;;;19.07;;
17345;SDS011;8790;53.590;10.002;2024-02-21T03:46:52;31.97;;;18.77;;
17345;SDS011;8790;53.590;10.002;2024-02-21T03:49:24;34.30;;;19.73;;
17345;SDS011;8790;53.590;10.002;2024-02-21T03:51:55;33.47;;;19.13;;
17345;SDS011;8790;53.590;10.002;2024-02-21T03:54:28;36.73;;;19.43;;
17345;SDS011;8790;53.590;10.002;2024-02-21T03:56:59;31.97;;;18.80;;
17345;SDS011;8790;53.590;10.002;2024-02-21T03:59:31;34.30;;;18.70;;
17345;SDS011;8790;53.590;10.002;2024-02-21T04:02:02;30.30;;;18.03;;
17345;SDS011;8790;53.590;10.002;2024-02-21T04:04:42;32.50;;;18.57;;
17345;SDS011;8790;53.590;10.002;2024-02-21T04:07:16;32.80;;;18.30;;
17345;SDS011;8790;53.590;10.002;2024-02-21T04:09:49;35.50;;;19.13;;
17345;SDS011;8790;53.590;10.002;2024-02-21T04:12:20;31.17;;;18.67;;
17345;SDS011;8790;53.590;10.002;2024-02-21T04:14:51;35.90;;;19.20;;
17345;SDS011;8790;53.590;10.002;2024-02-21T04:17:23;31.63;;;18.43;;
17345;SDS011;8790;53.590;10.002;2024-02-21T04:22:32;30.50;;;19.20;;
17345;SDS011;8790;53.590;10.002;2024-02-21T04:25:06;31.30;;;18.13;;
17345;SDS011;8790;53.590;10.002;2024-02-21T04:27:37;32.50;;;18.20;;
17345;SDS011;8790;53.590;10.002;2024-02-21T04:30:09;30.07;;;17.67;;
17345;SDS011;8790;53.590;10.002;2024-02-21T04:32:41;32.20;;;17.37;;
17345;SDS011;8790;53.590;10.002;2024-02-21T04:35:12;25.30;;;16.27;;
17345;SDS011;8790;53.590;10.002;2024-02-21T04:37:44;33.40;;;17.20;;
17345;SDS011;8790;53.590;10.002;2024-02-21T04:40:17;28.40;;;16.20;;
17345;SDS011;8790;53.590;10.002;2024-02-21T04:42:48;24.43;;;15.67;;
17345;SDS011;8790;53.590;10.002;2024-02-21T04:45:20;25.27;;;15.77;;
17345;SDS011;8790;53.590;10.002;2024-02-21T04:47:51;26.10;;;15.27;;
17345;SDS011;8790;53.590;10.002;2024-02-21T04:50:23;25.27;;;15.13;;
17345;SDS011;8790;53.590;10.002;2024-02-21T04:52:54;24.33;;;14.73;;
17345;SDS011;8790;53.590;10.002;2024-02-21T04:55:27;27.93;;;15.17;;
17345;SDS011;8790;53.590;10.002;2024-02-21T04:57:58;24.07;;;14.30;;
17345;SDS011;8790;53.590;10.002;2024-02-21T05:00:32;21.90;;;12.93;;
17345;SDS011;8790;53.590;10.002;2024-02-21T05:03:03;20.77;;;13.10;;
17345;SDS011;8790;53.590;10.002;2024-02-21T05:05:35;23.47;;;13.10;;
17345;SDS011;8790;53.590;10.002;2024-02-21T05:08:06;22.07;;;13.43;;
17345;SDS011;8790;53.590;10.002;2024-02-21T05:10:39;19.67;;;12.73;;
17345;SDS011;8790;53.590;10.002;2024-02-21T05:13:10;21.10;;;11.83;;
17345;SDS011;8790;53.590;10.002;2024-02-21T05:15:42;17.33;;;11.23;;
17345;SDS011;8790;53.590;10.002;2024-02-21T05:18:13;20.63;;;12.03;;
17345;SDS011;8790;53.590;10.002;2024-02-21T05:20:45;16.87;;;10.83;;
17345;SDS011;8790;53.590;10.002;2024-02-21T05:23:16;19.83;;;10.60;;
17345;SDS011;8790;53.590;10.002;2024-02-21T05:25:49;16.57;;;10.10;;
17345;SDS011;8790;53.590;10.002;2024-02-21T05:28:20;16.90;;;10.17;;
17345;SDS011;8790;53.590;10.002;2024-02-21T05:30:52;16.97;;;10.17;;
17345;SDS011;8790;53.590;10.002;2024-02-21T05:33:23;14.30;;;9.70;;
17345;SDS011;8790;53.590;10.002;2024-02-21T05:35:54;14.80;;;10.03;;
17345;SDS011;8790;53.590;10.002;2024-02-21T05:38:26;13.53;;;9.07;;
17345;SDS011;8790;53.590;10.002;2024-02-21T05:40:58;13.93;;;9.00;;
17345;SDS011;8790;53.590;10.002;2024-02-21T05:43:30;16.47;;;8.73;;
17345;SDS011;8790;53.590;10.002;2024-02-21T05:46:01;13.90;;;8.30;;
17345;SDS011;8790;53.590;10.002;2024-02-21T05:48:33;14.30;;;8.97;;
17345;SDS011;8790;53.590;10.002;2024-02-21T05:51:04;14.10;;;8.10;;
17345;SDS011;8790;53.590;10.002;2024-02-21T05:53:36;14.03;;;8.47;;
17345;SDS011;8790;53.590;10.002;2024-02-21T05:56:11;11.70;;;8.37;;
17345;SDS011;8790;53.590;10.002;2024-02-21T05:58:43;14.30;;;8.00;;
17345;SDS011;8790;53.590;10.002;2024-02-21T06:01:15;14.30;;;7.13;;
17345;SDS011;8790;53.590;10.002;2024-02-21T06:03:46;12.20;;;7.03;;
17345;SDS011;8790;53.590;10.002;2024-02-21T06:06:17;11.37;;;7.00;;
17345;SDS011;8790;53.590;10.002;2024-02-21T06:08:49;11.07;;;7.03;;
17345;SDS011;8790;53.590;10.002;2024-02-21T06:11:22;10.67;;;6.60;;
17345;SDS011;8790;53.590;10.002;2024-02-21T06:13:53;10.83;;;6.30;;
17345;SDS011;8790;53.590;10.002;2024-02-21T06:16:25;9.37;;;6.33;;
17345;SDS011;8790;53.590;10.002;2024-02-21T06:18:56;10.93;;;6.40;;
17345;SDS011;8790;53.590;10.002;2024-02-21T06:21:28;7.10;;;4.83;;
17345;SDS011;8790;53.590;10.002;2024-02-21T06:24:00;6.07;;;4.40;;
17345;SDS011;8790;53.590;10.002;2024-02-21T06:26:33;5.00;;;3.80;;
17345;SDS011;8790;53.590;10.002;2024-02-21T06:29:04;7.27;;;3.70;;
17345;SDS011;8790;53.590;10.002;2024-02-21T06:31:36;5.73;;;4.27;;
17345;SDS011;8790;53.590;10.002;2024-02-21T06:34:07;6.90;;;4.13;;
17345;SDS011;8790;53.590;10.002;2024-02-21T06:36:39;9.50;;;4.43;;
17345;SDS011;8790;53.590;10.002;2024-02-21T06:39:10;6.03;;;4.43;;
17345;SDS011;8790;53.590;10.002;2024-02-21T06:41:43;7.07;;;4.80;;
17345;SDS011;8790;53.590;10.002;2024-02-21T06:44:14;8.47;;;4.90;;
17345;SDS011;8790;53.590;10.002;2024-02-21T06:46:45;6.73;;;4.83;;
17345;SDS011;8790;53.590;10.002;2024-02-21T06:49:17;7.83;;;5.03;;
17345;SDS011;8790;53.590;10.002;2024-02-21T06:51:48;5.73;;;3.93;;
17345;SDS011;8790;53.590;10.002;2024-02-21T06:54:20;6.03;;;4.37;;
17345;SDS011;8790;53.590;10.002;2024-02-21T06:56:52;5.90;;;3.97;;
17345;SDS011;8790;53.590;10.002;2024-02-21T06:59:24;4.97;;;3.73;;
17345;SDS011;8790;53.590;10.002;2024-02-21T07:01:55;6.30;;;4.10;;
17345;SDS011;8790;53.590;10.002;2024-02-21T07:04:27;5.70;;;4.10;;
17345;SDS011;8790;53.590;10.002;2024-02-21T07:06:59;6.63;;;4.17;;
17345;SDS011;8790;53.590;10.002;2024-02-21T07:09:31;6.40;;;4.00;;
17345;SDS011;8790;53.590;10.002;2024-02-21T07:12:04;7.20;;;3.77;;
17345;SDS011;8790;53.590;10.002;2024-02-21T07:14:36;5.13;;;3.47;;
17345;SDS011;8790;53.590;10.002;2024-02-21T07:17:07;6.03;;;3.83;;
17345;SDS011;8790;53.590;10.002;2024-02-21T07:19:39;7.47;;;4.60;;
17345;SDS011;8790;53.590;10.002;2024-02-21T07:22:10;6.33;;;4.53;;
17345;SDS011;8790;53.590;10.002;2024-02-21T07:24:42;5.90;;;4.43;;
17345;SDS011;8790;53.590;10.002;2024-02-21T07:27:14;7.27;;;4.93;;
17345;SDS011;8790;53.590;10.002;2024-02-21T07:29:46;6.33;;;4.57;;
17345;SDS011;8790;53.590;10.002;2024-02-21T07:32:19;8.00;;;4.80;;
17345;SDS011;8790;53.590;10.002;2024-02-21T07:34:50;7.43;;;4.80;;
17345;SDS011;8790;53.590;10.002;2024-02-21T07:37:22;6.80;;;4.77;;
17345;SDS011;8790;53.590;10.002;2024-02-21T07:39:53;8.23;;;5.07;;
17345;SDS011;8790;53.590;10.002;2024-02-21T07:42:26;6.43;;;4.70;;
17345;SDS011;8790;53.590;10.002;2024-02-21T07:44:57;7.53;;;5.27;;
17345;SDS011;8790;53.590;10.002;2024-02-21T07:47:29;7.53;;;4.57;;
17345;SDS011;8790;53.590;10.002;2024-02-21T07:50:00;6.87;;;4.60;;
17345;SDS011;8790;53.590;10.002;2024-02-21T07:52:32;7.60;;;4.60;;
17345;SDS011;8790;53.590;10.002;2024-02-21T07:55:04;6.23;;;4.17;;
17345;SDS011;8790;53.590;10.002;2024-02-21T07:57:37;7.17;;;4.00;;
17345;SDS011;8790;53.590;10.002;2024-02-21T08:00:08;5.27;;;3.60;;
17345;SDS011;8790;53.590;10.002;2024-02-21T08:02:45;4.70;;;3.47;;
17345;SDS011;8790;53.590;10.002;2024-02-21T08:05:16;5.73;;;3.63;;
17345;SDS011;8790;53.590;10.002;2024-02-21T08:07:48;7.57;;;3.37;;
17345;SDS011;8790;53.590;10.002;2024-02-21T08:10:20;6.10;;;3.23;;
17345;SDS011;8790;53.590;10.002;2024-02-21T08:12:52;8.07;;;3.50;;
17345;SDS011;8790;53.590;10.002;2024-02-21T08:15:24;11.07;;;3.80;;
17345;SDS011;8790;53.590;10.002;2024-02-21T08:17:59;9.57;;;3.80;;
17345;SDS011;8790;53.590;10.002;2024-02-21T08:20:31;8.17;;;3.37;;
17345;SDS011;8790;53.590;10.002;2024-02-21T08:23:03;8.70;;;3.73;;
17345;SDS011;8790;53.590;10.002;2024-02-21T08:25:34;10.97;;;3.80;;
17345;SDS011;8790;53.590;10.002;2024-02-21T08:28:07;10.53;;;3.80;;
17345;SDS011;8790;53.590;10.002;2024-02-21T08:30:38;9.17;;;3.53;;
17345;SDS011;8790;53.590;10.002;2024-02-21T08:33:10;10.03;;;3.23;;
17345;SDS011;8790;53.590;10.002;2024-02-21T08:35:41;12.33;;;3.67;;
17345;SDS011;8790;53.590;10.002;2024-02-21T08:38:13;10.03;;;3.17;;
17345;SDS011;8790;53.590;10.002;2024-02-21T08:40:45;9.43;;;3.60;;
17345;SDS011;8790;53.590;10.002;2024-02-21T08:43:18;9.60;;;3.70;;
17345;SDS011;8790;53.590;10.002;2024-02-21T08:45:49;10.63;;;3.73;;
17345;SDS011;8790;53.590;10.002;2024-02-21T08:48:21;10.97;;;3.30;;
17345;SDS011;8790;53.590;10.002;2024-02-21T08:50:53;10.97;;;3.57;;
17345;SDS011;8790;53.590;10.002;2024-02-21T08:53:24;13.80;;;3.70;;
17345;SDS011;8790;53.590;10.002;2024-02-21T08:55:56;9.17;;;3.40;;
17345;SDS011;8790;53.590;10.002;2024-02-21T08:58:30;9.83;;;3.40;;
17345;SDS011;8790;53.590;10.002;2024-02-21T09:01:01;9.50;;;3.50;;
17345;SDS011;8790;53.590;10.002;2024-02-21T09:03:34;13.40;;;3.60;;
17345;SDS011;8790;53.590;10.002;2024-02-21T09:06:05;11.70;;;3.53;;
17345;SDS011;8790;53.590;10.002;2024-02-21T09:08:37;10.50;;;3.97;;
17345;SDS011;8790;53.590;10.002;2024-02-21T09:11:08;11.67;;;3.37;;
17345;SDS011;8790;53.590;10.002;2024-02-21T09:13:41;10.47;;;3.90;;
17345;SDS011;8790;53.590;10.002;2024-02-21T09:16:13;10.53;;;3.03;;
17345;SDS011;8790;53.590;10.002;2024-02-21T09:18:44;10.80;;;3.80;;
17345;SDS011;8790;53.590;10.002;2024-02-21T09:21:16;10.60;;;3.80;;
17345;SDS011;8790;53.590;10.002;2024-02-21T09:23:48;10.17;;;3.10;;
17345;SDS011;8790;53.590;10.002;2024-02-21T09:26:19;10.37;;;3.40;;
17345;SDS011;8790;53.590;10.002;2024-02-21T09:28:52;8.87;;;2.93;;
17345;SDS011;8790;53.590;10.002;2024-02-21T09:31:23;8.97;;;3.33;;
17345;SDS011;8790;53.590;10.002;2024-02-21T09:33:54;8.97;;;2.60;;
17345;SDS011;8790;53.590;10.002;2024-02-21T09:36:26;9.07;;;3.30;;
17345;SDS011;8790;53.590;10.002;2024-02-21T09:38:57;10.67;;;3.20;;
17345;SDS011;8790;53.590;10.002;2024-02-21T09:41:29;9.23;;;3.13;;
17345;SDS011;8790;53.590;10.002;2024-02-21T09:44:01;10.40;;;3.40;;
17345;SDS011;8790;53.590;10.002;2024-02-21T09:46:37;6.73;;;2.70;;
17345;SDS011;8790;53.590;10.002;2024-02-21T09:49:13;7.80;;;3.07;;
17345;SDS011;8790;53.590;10.002;2024-02-21T09:51:53;7.77;;;3.47;;
17345;SDS011;8790;53.590;10.002;2024-02-21T09:54:25;7.03;;;3.07;;
17345;SDS011;8790;53.590;10.002;2024-02-21T09:56:57;7.77;;;2.90;;
17345;SDS011;8790;53.590;10.002;2024-02-21T09:59:30;6.07;;;2.80;;
17345;SDS011;8790;53.590;10.002;2024-02-21T10:02:02;5.60;;;2.87;;
17345;SDS011;8790;53.590;10.002;2024-02-21T10:04:34;6.27;;;2.80;;
17345;SDS011;8790;53.590;10.002;2024-02-21T10:07:06;5.97;;;2.73;;
17345;SDS011;8790;53.590;10.002;2024-02-21T10:09:39;5.70;;;2.83;;
17345;SDS011;8790;53.590;10.002;2024-02-21T10:12:12;5.33;;;2.43;;
17345;SDS011;8790;53.590;10.002;2024-02-21T10:14:48;4.67;;;2.93;;
17345;SDS011;8790;53.590;10.002;2024-02-21T10:17:31;7.80;;;3.37;;
17345;SDS011;8790;53.590;10.002;2024-02-21T10:20:06;5.00;;;3.40;;
17345;SDS011;8790;53.590;10.002;2024-02-21T10:22:39;7.37;;;4.00;;
17345;SDS011;8790;53.590;10.002;2024-02-21T10:25:11;7.37;;;4.60;;
17345;SDS011;8790;53.590;10.002;2024-02-21T10:27:43;9.97;;;6.23;;
17345;SDS011;8790;53.590;10.002;2024-02-21T10:30:15;9.23;;;6.37;;
17345;SDS011;8790;53.590;10.002;2024-02-21T10:32:48;10.30;;;7.10;;
17345;SDS011;8790;53.590;10.002;2024-02-21T10:35:27;13.83;;;8.50;;
17345;SDS011;8790;53.590;10.002;2024-02-21T10:37:59;14.67;;;8.57;;
17345;SDS011;8790;53.590;10.002;2024-02-21T10:40:31;20.23;;;11.17;;
17345;SDS011;8790;53.590;10.002;2024-02-21T10:43:02;18.20;;;11.13;;
17345;SDS011;8790;53.590;10.002;2024-02-21T10:45:36;22.17;;;12.20;;
17345;SDS011;8790;53.590;10.002;2024-02-21T10:48:08;19.60;;;12.27;;
17345;SDS011;8790;53.590;10.002;2024-02-21T10:50:47;21.93;;;13.40;;
17345;SDS011;8790;53.590;10.002;2024-02-21T10:53:28;24.47;;;13.57;;
17345;SDS011;8790;53.590;10.002;2024-02-21T10:56:06;27.03;;;13.93;;
17345;SDS011;8790;53.590;10.002;2024-02-21T10:58:47;26.53;;;12.90;;
17345;SDS011;8790;53.590;10.002;2024-02-21T11:01:20;25.73;;;14.30;;
17345;SDS011;8790;53.590;10.002;2024-02-21T11:03:53;22.93;;;13.70;;
17345;SDS011;8790;53.590;10.002;2024-02-21T11:06:25;26.63;;;13.20;;
17345;SDS011;8790;53.590;10.002;2024-02-21T11:09:01;28.63;;;13.63;;
17345;SDS011;8790;53.590;10.002;2024-02-21T11:11:34;23.60;;;14.30;;
17345;SDS011;8790;53.590;10.002;2024-02-21T11:14:06;23.43;;;13.23;;
17345;SDS011;8790;53.590;10.002;2024-02-21T11:16:39;22.27;;;13.50;;
17345;SDS011;8790;53.590;10.002;2024-02-21T11:19:18;20.23;;;12.17;;
17345;SDS011;8790;53.590;10.002;2024-02-21T11:21:52;23.43;;;13.20;;
17345;SDS011;8790;53.590;10.002;2024-02-21T11:24:28;22.23;;;13.37;;
17345;SDS011;8790;53.590;10.002;2024-02-21T11:27:07;23.53;;;12.03;;
17345;SDS011;8790;53.590;10.002;2024-02-21T11:29:40;22.13;;;11.83;;
17345;SDS011;8790;53.590;10.002;2024-02-21T11:32:15;20.17;;;11.40;;
17345;SDS011;8790;53.590;10.002;2024-02-21T11:34:55;17.43;;;10.90;;
17345;SDS011;8790;53.590;10.002;2024-02-21T11:37:27;21.10;;;11.50;;
17345;SDS011;8790;53.590;10.002;2024-02-21T11:39:59;19.40;;;10.80;;
17345;SDS011;8790;53.590;10.002;2024-02-21T11:42:31;19.27;;;10.80;;
17345;SDS011;8790;53.590;10.002;2024-02-21T11:45:03;18.07;;;9.37;;
17345;SDS011;8790;53.590;10.002;2024-02-21T11:47:36;18.70;;;10.97;;
17345;SDS011;8790;53.590;10.002;2024-02-21T11:50:09;15.93;;;9.43;;
17345;SDS011;8790;53.590;10.002;2024-02-21T11:52:41;19.17;;;10.10;;
17345;SDS011;8790;53.590;10.002;2024-02-21T11:55:12;18.53;;;8.87;;
17345;SDS011;8790;53.590;10.002;2024-02-21T11:57:43;16.47;;;9.27;;
17345;SDS011;8790;53.590;10.002;2024-02-21T12:00:16;17.00;;;9.30;;
17345;SDS011;8790;53.590;10.002;2024-02-21T12:02:51;16.10;;;8.93;;
17345;SDS011;8790;53.590;10.002;2024-02-21T12:05:23;14.30;;;8.83;;
17345;SDS011;8790;53.590;10.002;2024-02-21T12:07:57;15.57;;;9.27;;
17345;SDS011;8790;53.590;10.002;2024-02-21T12:10:29;13.90;;;8.87;;
17345;SDS011;8790;53.590;10.002;2024-02-21T12:13:06;14.47;;;8.90;;
17345;SDS011;8790;53.590;10.002;2024-02-21T12:15:39;17.37;;;9.33;;
17345;SDS011;8790;53.590;10.002;2024-02-21T12:18:12;17.87;;;9.00;;
17345;SDS011;8790;53.590;10.002;2024-02-21T12:20:43;17.53;;;9.40;;
17345;SDS011;8790;53.590;10.002;2024-02-21T12:23:18;16.30;;;9.07;;
17345;SDS011;8790;53.590;10.002;2024-02-21T12:25:50;16.83;;;9.07;;
17345;SDS011;8790;53.590;10.002;2024-02-21T12:28:24;16.77;;;8.93;;
17345;SDS011;8790;53.590;10.002;2024-02-21T12:30:56;14.93;;;8.80;;
17345;SDS011;8790;53.590;10.002;2024-02-21T12:33:28;15.33;;;9.50;;
17345;SDS011;8790;53.590;10.002;2024-02-21T12:36:00;13.77;;;7.97;;
17345;SDS011;8790;53.590;10.002;2024-02-21T12:38:31;15.70;;;8.73;;
17345;SDS011;8790;53.590;10.002;2024-02-21T12:41:03;14.70;;;8.90;;
17345;SDS011;8790;53.590;10.002;2024-02-21T12:43:34;16.30;;;8.60;;
17345;SDS011;8790;53.590;10.002;2024-02-21T12:46:06;13.80;;;8.80;;
17345;SDS011;8790;53.590;10.002;2024-02-21T12:48:40;19.63;;;9.87;;
17345;SDS011;8790;53.590;10.002;2024-02-21T12:51:11;12.93;;;9.40;;
17345;SDS011;8790;53.590;10.002;2024-02-21T12:53:43;18.30;;;10.13;;
17345;SDS011;8790;53.590;10.002;2024-02-21T12:56:14;19.40;;;10.43;;
17345;SDS011;8790;53.590;10.002;2024-02-21T12:58:46;19.90;;;10.03;;
17345;SDS011;8790;53.590;10.002;2024-02-21T13:01:17;20.40;;;10.77;;
17345;SDS011;8790;53.590;10.002;2024-02-21T13:03:50;20.47;;;10.70;;
17345;SDS011;8790;53.590;10.002;2024-02-21T13:06:21;17.70;;;10.70;;
17345;SDS011;8790;53.590;10.002;2024-02-21T13:08:53;19.80;;;10.67;;
17345;SDS011;8790;53.590;10.002;2024-02-21T13:11:24;20.87;;;10.83;;
17345;SDS011;8790;53.590;10.002;2024-02-21T13:13:58;22.63;;;10.97;;
17345;SDS011;8790;53.590;10.002;2024-02-21T13:16:29;22.23;;;11.63;;
17345;SDS011;8790;53.590;10.002;2024-02-21T13:19:02;20.10;;;11.90;;
17345;SDS011;8790;53.590;10.002;2024-02-21T13:21:34;19.97;;;11.07;;
17345;SDS011;8790;53.590;10.002;2024-02-21T13:24:06;18.43;;;10.63;;
17345;SDS011;8790;53.590;10.002;2024-02-21T13:26:37;17.53;;;11.77;;
17345;SDS011;8790;53.590;10.002;2024-02-21T13:29:09;20.93;;;11.20;;
17345;SDS011;8790;53.590;10.002;2024-02-21T13:31:40;17.40;;;11.40;;
17345;SDS011;8790;53.590;10.002;2024-02-21T13:34:13;21.10;;;10.60;;
17345;SDS011;8790;53.590;10.002;2024-02-21T13:36:44;20.63;;;10.97;;
17345;SDS011;8790;53.590;10.002;2024-02-21T13:39:16;18.40;;;11.30;;
17345;SDS011;8790;53.590;10.002;2024-02-21T13:41:49;16.73;;;9.97;;
17345;SDS011;8790;53.590;10.002;2024-02-21T13:44:20;21.90;;;10.53;;
17345;SDS011;8790;53.590;10.002;2024-02-21T13:46:52;18.63;;;10.73;;
17345;SDS011;8790;53.590;10.002;2024-02-21T13:49:24;16.60;;;10.17;;
17345;SDS011;8790;53.590;10.002;2024-02-21T13:51:56;17.07;;;10.40;;
17345;SDS011;8790;53.590;10.002;2024-02-21T13:54:27;17.13;;;10.27;;
17345;SDS011;8790;53.590;10.002;2024-02-21T13:56:59;19.27;;;10.63;;
17345;SDS011;8790;53.590;10.002;2024-02-21T13:59:31;16.77;;;10.33;;
17345;SDS011;8790;53.590;10.002;2024-02-21T14:02:03;15.67;;;10.03;;
17345;SDS011;8790;53.590;10.002;2024-02-21T14:04:36;16.70;;;10.00;;
17345;SDS011;8790;53.590;10.002;2024-02-21T14:07:07;17.03;;;9.67;;
17345;SDS011;8790;53.590;10.002;2024-02-21T14:09:38;18.83;;;9.33;;
17345;SDS011;8790;53.590;10.002;2024-02-21T14:12:10;15.37;;;9.67;;
17345;SDS011;8790;53.590;10.002;2024-02-21T14:14:43;20.37;;;9.90;;
17345;SDS011;8790;53.590;10.002;2024-02-21T14:17:14;16.57;;;9.80;;
17345;SDS011;8790;53.590;10.002;2024-02-21T14:19:47;14.97;;;9.20;;
17345;SDS011;8790;53.590;10.002;2024-02-21T14:22:18;14.33;;;9.33;;
17345;SDS011;8790;53.590;10.002;2024-02-21T14:24:50;18.10;;;9.23;;
17345;SDS011;8790;53.590;10.002;2024-02-21T14:27:21;15.77;;;9.50;;
17345;SDS011;8790;53.590;10.002;2024-02-21T14:29:52;11.93;;;8.43;;
17345;SDS011;8790;53.590;10.002;2024-02-21T14:32:24;16.43;;;9.00;;
17345;SDS011;8790;53.590;10.002;2024-02-21T14:34:57;16.77;;;8.97;;
17345;SDS011;8790;53.590;10.002;2024-02-21T14:37:28;14.17;;;8.97;;
17345;SDS011;8790;53.590;10.002;2024-02-21T14:40:00;12.30;;;8.47;;
17345;SDS011;8790;53.590;10.002;2024-02-21T14:42:31;13.90;;;8.67;;
17345;SDS011;8790;53.590;10.002;2024-02-21T14:45:03;13.73;;;8.77;;
17345;SDS011;8790;53.590;10.002;2024-02-21T14:47:35;13.47;;;8.20;;
17345;SDS011;8790;53.590;10.002;2024-02-21T14:50:08;12.33;;;8.10;;
17345;SDS011;8790;53.590;10.002;2024-02-21T14:52:40;12.73;;;8.20;;
17345;SDS011;8790;53.590;10.002;2024-02-21T14:55:14;12.63;;;8.50;;
17345;SDS011;8790;53.590;10.002;2024-02-21T14:57:45;12.70;;;8.00;;
17345;SDS011;8790;53.590;10.002;2024-02-21T15:00:17;12.90;;;8.37;;
17345;SDS011;8790;53.590;10.002;2024-02-21T15:02:51;12.83;;;8.20;;